Time;durP1;ratioP1;P1;durP2;ratioP2;P2;SDS_P1;SDS_P2;PMS_P1;PMS_P2;Temp;Humidity;BMP_temperature;BMP_pressure;BME280_temperature;BME280_humidity;BME280_pressure;Samples;Min_cycle;Max_cycle;Signal;HPM_P1;HPM_P2
2022/07/22 00:01:27;;;;;;;6.65;5.90;;;22.50;57.90;;;22.68;49.24;98008.41;5005433;28;20064;-55
2022/07/22 00:03:54;;;;;;;7.85;7.07;;;22.50;58.10;;;22.66;49.10;98005.91;5005432;28;20062;-53
2022/07/22 00:06:22;;;;;;;6.97;6.28;;;22.50;58.20;;;22.63;49.18;98002.88;5004872;28;20352;-53
2022/07/22 00:08:50;;;;;;;7.20;6.00;;;22.40;58.30;;;22.60;49.28;98006.84;5005714;28;20064;-53
2022/07/22 00:11:18;;;;;;;8.25;6.18;;;22.40;58.40;;;22.56;49.88;98002.94;5006442;28;20052;-52
2022/07/22 00:13:46;;;;;;;6.53;5.85;;;22.30;58.60;;;22.53;49.36;98001.53;5006819;28;20042;-54
2022/07/22 00:16:14;;;;;;;7.32;5.97;;;22.30;58.80;;;22.50;49.78;97999.25;5006995;28;20064;-52
2022/07/22 00:18:43;;;;;;;6.35;5.47;;;22.30;58.80;;;22.48;49.71;98006.78;5006606;28;20054;-53
2022/07/22 00:21:10;;;;;;;7.57;5.93;;;22.20;58.90;;;22.46;50.05;98000.78;5005333;28;20360;-53
2022/07/22 00:23:38;;;;;;;6.75;6.13;;;22.20;58.90;;;22.44;50.13;98008.31;5005964;28;20042;-55
2022/07/22 00:26:06;;;;;;;7.00;6.30;;;22.20;59.20;;;22.40;50.15;97999.81;5006678;28;20060;-56
2022/07/22 00:28:34;;;;;;;7.22;6.50;;;22.10;59.30;;;22.39;50.16;98000.03;5006841;28;20061;-56
2022/07/22 00:31:02;;;;;;;6.75;6.05;;;22.10;59.30;;;22.36;50.37;97993.19;5005394;28;20060;-55
2022/07/22 00:33:30;;;;;;;7.28;6.43;;;22.10;59.50;;;22.34;50.58;97999.91;5005789;28;20057;-56
2022/07/22 00:35:58;;;;;;;7.03;6.30;;;22.10;59.80;;;22.33;50.29;98007.22;5006966;28;20050;-55
2022/07/22 00:38:26;;;;;;;7.10;6.18;;;22.20;59.90;;;22.32;50.80;97994.69;5006354;28;20058;-54
2022/07/22 00:40:54;;;;;;;6.47;5.88;;;22.10;60.00;;;22.29;50.79;97988.91;5006575;28;20050;-56
2022/07/22 00:43:21;;;;;;;6.47;5.88;;;22.10;59.90;;;22.26;50.80;97997.50;5008503;28;20052;-51
2022/07/22 00:45:51;;;;;;;6.38;5.78;;;22.10;60.20;;;22.21;51.28;97998.97;4992602;28;20060;-55
2022/07/22 00:48:19;;;;;;;8.80;6.80;;;22.00;60.30;;;22.18;51.33;97988.59;5009563;28;20572;-54
2022/07/22 00:50:47;;;;;;;7.75;6.75;;;21.90;60.50;;;22.15;51.20;97997.16;5010453;28;20054;-52
2022/07/22 00:53:16;;;;;;;6.07;5.47;;;21.90;60.70;;;22.12;51.30;97991.38;5007875;28;20621;-55
2022/07/22 00:55:44;;;;;;;7.80;6.97;;;21.90;61.00;;;22.09;51.39;97989.13;5007152;28;20362;-56
2022/07/22 00:58:11;;;;;;;8.73;6.65;;;21.80;61.00;;;22.07;51.54;97985.81;5009796;28;20050;-54
2022/07/22 01:00:39;;;;;;;6.75;6.05;;;21.80;61.10;;;22.03;51.44;97991.66;5008794;28;20050;-55
2022/07/22 01:03:07;;;;;;;7.88;6.13;;;21.80;61.30;;;22.01;51.31;97988.38;5009922;28;20352;-56
2022/07/22 01:05:35;;;;;;;7.15;6.45;;;21.80;61.50;;;22.00;51.30;97994.84;5009483;28;20553;-55
2022/07/22 01:08:06;;;;;;;7.70;6.93;;;21.70;61.40;;;21.98;51.86;97985.28;5008370;28;20348;-53
2022/07/22 01:10:34;;;;;;;7.85;7.07;;;21.70;61.70;;;21.97;51.45;97989.88;5007456;28;20197;-52
2022/07/22 01:13:02;;;;;;;8.43;7.28;;;21.70;61.70;;;21.96;51.61;97985.50;5007539;28;20054;-55
2022/07/22 01:15:30;;;;;;;8.27;5.78;;;21.70;61.60;;;21.95;52.12;97983.03;5040933;28;20054;-57
2022/07/22 01:17:58;;;;;;;8.52;7.20;;;21.70;61.80;;;21.93;51.71;97985.13;5007734;28;20058;-55
2022/07/22 01:20:26;;;;;;;7.28;6.53;;;21.70;61.70;;;21.90;51.49;97978.28;5009332;28;20076;-57
2022/07/22 01:22:53;;;;;;;9.18;7.60;;;21.70;61.80;;;21.90;51.65;97980.16;5007224;28;20355;-58
2022/07/22 01:25:21;;;;;;;8.85;7.15;;;21.60;61.80;;;21.89;51.96;97982.06;5008461;28;20225;-59
2022/07/22 01:27:49;;;;;;;8.25;7.45;;;21.60;61.70;;;21.87;51.88;97978.75;5006879;28;20068;-57
2022/07/22 01:30:17;;;;;;;9.38;7.28;;;21.60;61.80;;;21.86;52.21;97984.38;5007633;28;20044;-58
2022/07/22 01:32:45;;;;;;;7.95;7.25;;;21.60;62.10;;;21.82;52.04;97986.72;5007661;28;20257;-56
2022/07/22 01:35:13;;;;;;;8.27;7.15;;;21.60;62.10;;;21.80;52.26;97988.81;5007673;28;20389;-57
2022/07/22 01:37:41;;;;;;;9.20;7.00;;;21.60;62.30;;;21.77;52.43;97991.97;4992454;28;20056;-56
2022/07/22 01:40:10;;;;;;;7.60;6.80;;;21.50;62.50;;;21.71;52.13;97982.84;5007069;28;20049;-58
2022/07/22 01:42:38;;;;;;;9.50;6.78;;;21.50;62.80;;;21.67;52.30;97980.81;5006712;28;20263;-59
2022/07/22 01:45:07;;;;;;;8.20;6.68;;;21.40;63.00;;;21.64;52.40;97982.09;4991663;28;20060;-60
2022/07/22 01:47:35;;;;;;;10.40;7.82;;;21.40;63.10;;;21.61;52.39;97979.84;5007031;28;20079;-60
2022/07/22 01:50:06;;;;;;;8.27;7.47;;;21.30;63.20;;;21.61;52.50;97979.84;5006718;28;20053;-58
2022/07/22 01:52:34;;;;;;;7.68;6.97;;;21.40;63.20;;;21.59;52.61;97981.94;4991229;28;20257;-59
2022/07/22 01:55:06;;;;;;;9.20;8.27;;;21.40;63.20;;;21.56;52.56;97983.22;5006948;28;20445;-58
2022/07/22 01:57:36;;;;;;;10.63;7.60;;;21.30;63.50;;;21.56;52.77;97983.22;5009300;28;20057;-58
2022/07/22 02:00:14;;;;;;;10.93;8.98;;;21.30;63.50;;;21.52;52.68;97990.16;5006167;28;20054;-58
2022/07/22 02:02:46;;;;;;;8.50;7.65;;;21.30;63.70;;;21.48;52.63;97982.69;5008112;28;20056;-56
2022/07/22 02:05:14;;;;;;;9.15;8.15;;;21.20;63.90;;;21.48;52.70;97988.09;5008411;28;20064;-56
2022/07/22 02:07:42;;;;;;;10.48;8.55;;;21.20;64.10;;;21.41;53.02;97985.44;5007487;28;20061;-55
2022/07/22 02:10:10;;;;;;;10.20;8.23;;;21.10;64.30;;;21.39;53.05;97985.63;5039512;28;20072;-57
2022/07/22 02:12:39;;;;;;;8.98;7.57;;;21.10;64.50;;;21.35;53.13;97984.44;5006431;28;20262;-56
2022/07/22 02:15:08;;;;;;;11.65;9.07;;;21.10;64.60;;;21.33;53.27;97983.00;5006124;28;20058;-58
2022/07/22 02:17:36;;;;;;;8.70;7.75;;;21.00;64.80;;;21.29;53.62;97982.63;5008194;28;20060;-59
2022/07/22 02:20:05;;;;;;;8.60;7.70;;;21.00;64.90;;;21.27;53.78;97983.88;5006346;28;20054;-59
2022/07/22 02:22:33;;;;;;;9.07;8.18;;;21.00;65.30;;;21.23;53.84;97987.03;5040462;28;20056;-57
2022/07/22 02:25:02;;;;;;;9.63;8.60;;;21.00;65.30;;;21.23;53.90;97986.22;5007408;28;20193;-57
2022/07/22 02:27:30;;;;;;;10.00;8.93;;;21.00;65.40;;;21.21;53.81;97985.63;5007178;28;20364;-58
2022/07/22 02:29:58;;;;;;;8.95;8.02;;;20.90;65.50;;;21.16;54.13;97980.84;5006211;28;20060;-59
2022/07/22 02:32:26;;;;;;;11.38;10.27;;;20.90;65.70;;;21.14;53.93;97976.72;5008410;28;20049;-59
2022/07/22 02:34:54;;;;;;;9.02;7.93;;;20.90;66.00;;;21.09;54.00;97976.53;5006743;28;20046;-59
2022/07/22 02:37:24;;;;;;;10.05;7.90;;;20.80;66.20;;;21.02;54.35;97974.72;5005371;28;20056;-59
2022/07/22 02:39:53;;;;;;;12.00;8.45;;;20.70;66.70;;;20.99;54.40;97968.91;5008423;28;20352;-59
2022/07/22 02:42:21;;;;;;;11.05;9.07;;;20.70;67.00;;;20.96;54.45;97972.88;5021835;28;20064;-59
2022/07/22 02:44:51;;;;;;;9.32;8.43;;;20.60;66.90;;;20.94;54.33;97975.00;5006632;28;20066;-59
2022/07/22 02:47:19;;;;;;;9.75;8.75;;;20.60;67.10;;;20.92;54.84;97971.69;5006910;28;20426;-59
2022/07/22 02:49:47;;;;;;;8.90;7.93;;;20.60;67.50;;;20.89;55.01;97972.09;5038584;28;20076;-58
2022/07/22 02:52:16;;;;;;;9.52;8.60;;;20.60;67.60;;;20.83;54.82;97970.28;5006228;28;20056;-59
2022/07/22 02:54:44;;;;;;;8.77;7.88;;;20.50;68.10;;;20.81;55.11;97973.19;5008105;28;20366;-59
2022/07/22 02:57:12;;;;;;;10.52;9.10;;;20.50;68.30;;;20.77;55.23;97977.41;5007357;28;20054;-59
2022/07/22 02:59:41;;;;;;;9.63;8.32;;;20.50;68.40;;;20.75;55.49;97976.78;5006990;28;20050;-59
2022/07/22 03:02:09;;;;;;;9.35;8.45;;;20.50;68.60;;;20.75;55.33;97976.78;5021876;28;20058;-59
2022/07/22 03:04:37;;;;;;;11.07;9.57;;;20.50;68.70;;;20.74;55.80;97977.81;5005096;28;20551;-59
2022/07/22 03:07:05;;;;;;;9.50;8.05;;;20.40;68.80;;;20.70;55.64;97975.78;4988896;28;20063;-59
2022/07/22 03:09:34;;;;;;;9.85;8.75;;;20.40;69.20;;;20.68;55.80;97978.69;5006901;28;20064;-59
2022/07/22 03:12:02;;;;;;;11.23;10.02;;;20.40;69.50;;;20.65;56.08;97982.69;5006244;28;20096;-59
2022/07/22 03:14:31;;;;;;;9.88;8.57;;;20.40;69.50;;;20.62;56.13;97984.97;5007001;28;20060;-59
2022/07/22 03:16:59;;;;;;;9.93;8.88;;;20.40;69.70;;;20.60;56.16;97981.66;5006024;28;20364;-59
2022/07/22 03:19:28;;;;;;;10.50;8.65;;;20.30;70.20;;;20.59;56.29;97980.00;5005214;28;20054;-59
2022/07/22 03:21:57;;;;;;;10.15;9.05;;;20.20;70.60;;;20.56;56.39;97975.81;5005062;28;20057;-59
2022/07/22 03:24:25;;;;;;;10.10;9.10;;;20.30;71.00;;;20.54;56.38;97980.63;5006466;28;20241;-59
2022/07/22 03:26:53;;;;;;;11.23;9.57;;;20.30;71.10;;;20.54;56.47;97985.22;4989411;28;20058;-59
2022/07/22 03:29:21;;;;;;;11.00;9.43;;;20.30;71.10;;;20.54;56.55;97985.22;5007159;28;20052;-59
2022/07/22 03:31:49;;;;;;;10.40;9.32;;;20.30;71.20;;;20.52;56.80;97985.41;5006664;28;20236;-59
2022/07/22 03:34:24;;;;;;;11.70;9.43;;;20.30;71.30;;;20.50;56.60;97982.09;5005212;28;20050;-59
2022/07/22 03:36:59;;;;;;;11.20;9.38;;;20.20;71.20;;;20.51;56.79;97982.94;5005308;28;20251;-59
2022/07/22 03:39:27;;;;;;;10.40;9.25;;;20.20;71.50;;;20.48;56.97;97975.25;5005277;28;20347;-59
2022/07/22 03:41:55;;;;;;;11.90;9.45;;;20.20;71.80;;;20.46;56.89;97981.72;5004514;28;20253;-59
2022/07/22 03:44:24;;;;;;;11.32;9.65;;;20.20;72.10;;;20.46;57.15;97984.41;5005485;28;20061;-59
2022/07/22 03:46:52;;;;;;;12.55;9.63;;;20.20;72.10;;;20.46;57.04;97984.41;5006065;28;20058;-59
2022/07/22 03:49:20;;;;;;;10.85;9.75;;;20.20;72.10;;;20.44;57.31;97983.81;5004816;28;20060;-59
2022/07/22 03:51:48;;;;;;;11.23;9.93;;;20.20;72.10;;;20.41;57.14;97986.94;5020957;28;20070;-59
2022/07/22 03:54:15;;;;;;;11.13;10.10;;;20.10;72.30;;;20.37;57.25;97983.00;5006831;28;20045;-59
2022/07/22 03:56:43;;;;;;;11.90;10.25;;;20.10;72.60;;;20.37;57.21;97987.59;5004131;28;20050;-58
2022/07/22 03:59:11;;;;;;;10.52;9.07;;;20.10;72.80;;;20.34;57.60;97986.16;5006154;28;20260;-59
2022/07/22 04:01:40;;;;;;;10.52;9.27;;;20.10;73.00;;;20.32;57.50;97982.00;5003939;28;20064;-59
2022/07/22 04:04:10;;;;;;;10.50;9.40;;;20.10;73.40;;;20.29;57.63;97980.53;5005237;28;20252;-59
2022/07/22 04:06:42;;;;;;;11.38;10.27;;;20.00;73.30;;;20.29;57.58;97985.13;5007246;28;20407;-59
2022/07/22 04:09:18;;;;;;;10.90;9.25;;;20.00;73.60;;;20.31;57.75;97983.03;5004811;28;20068;-59
2022/07/22 04:11:46;;;;;;;11.43;10.20;;;20.00;73.60;;;20.29;57.67;97975.13;5005649;28;20058;-59
2022/07/22 04:14:14;;;;;;;12.07;9.38;;;20.00;73.60;;;20.27;58.00;97982.63;5004411;28;20061;-59
2022/07/22 04:16:45;;;;;;;11.05;8.90;;;20.00;73.70;;;20.29;57.90;97982.44;5005028;28;20046;-61
2022/07/22 04:19:14;;;;;;;14.55;11.38;;;20.00;74.00;;;20.29;58.03;97971.63;4994161;28;20241;-61
2022/07/22 04:21:56;;;;;;;14.15;9.73;;;20.00;74.20;;;20.30;58.09;97976.81;5011973;28;20240;-61
2022/07/22 04:24:28;;;;;;;10.80;9.52;;;20.00;74.30;;;20.33;58.04;97980.94;5008141;28;20443;-63
2022/07/22 04:26:57;;;;;;;13.52;9.75;;;20.10;74.40;;;20.35;57.99;97978.84;4994071;28;20356;-60
2022/07/22 04:29:25;;;;;;;11.15;10.05;;;20.10;74.50;;;20.34;58.18;97979.91;5009073;28;20804;-59
2022/07/22 04:31:54;;;;;;;11.73;9.57;;;20.10;74.80;;;20.33;58.14;97978.25;5008166;28;20406;-57
2022/07/22 04:34:30;;;;;;;10.98;9.88;;;20.10;74.90;;;20.32;58.29;97977.44;5008491;28;20340;-57
2022/07/22 04:37:00;;;;;;;12.90;10.55;;;20.10;74.90;;;20.32;58.49;97968.50;5008728;28;20185;-58
2022/07/22 04:39:31;;;;;;;14.80;11.98;;;20.10;75.10;;;20.33;58.49;97970.13;5006980;28;20072;-58
2022/07/22 04:41:59;;;;;;;14.15;10.95;;;20.10;75.20;;;20.34;58.57;97971.81;5024828;28;20046;-58
2022/07/22 04:44:28;;;;;;;11.80;10.02;;;20.10;75.30;;;20.33;58.48;97972.84;5007664;28;20049;-58
2022/07/22 04:46:56;;;;;;;11.55;10.30;;;20.10;75.40;;;20.32;58.58;97974.72;5008083;28;20060;-59
2022/07/22 04:49:25;;;;;;;12.20;10.45;;;20.10;75.60;;;20.34;58.63;97969.09;5009084;28;20226;-57
2022/07/22 04:51:58;;;;;;;10.98;9.77;;;20.10;75.60;;;20.36;58.77;97978.66;5007420;28;20053;-59
2022/07/22 04:54:37;;;;;;;12.30;9.23;;;20.20;75.60;;;20.41;58.66;97978.84;5007987;28;20353;-60
2022/07/22 04:57:07;;;;;;;12.00;9.38;;;20.20;75.60;;;20.46;58.78;97976.28;5007419;28;20268;-60
2022/07/22 04:59:35;;;;;;;10.48;9.40;;;20.20;75.50;;;20.49;58.90;97975.06;5009930;28;20249;-60
2022/07/22 05:02:03;;;;;;;12.73;9.75;;;20.30;75.70;;;20.50;58.87;97970.47;5008599;28;20052;-59
2022/07/22 05:04:31;;;;;;;11.13;8.63;;;20.30;75.90;;;20.49;58.66;97968.78;5008245;28;20267;-57
2022/07/22 05:06:59;;;;;;;11.88;10.02;;;20.30;75.90;;;20.50;58.78;97973.16;5007696;28;20052;-59
2022/07/22 05:09:27;;;;;;;10.45;9.35;;;20.30;75.90;;;20.53;58.77;97972.72;5008418;28;20066;-57
2022/07/22 05:11:54;;;;;;;11.45;9.27;;;20.30;75.70;;;20.56;58.73;97969.59;5007623;28;20128;-50
2022/07/22 05:14:23;;;;;;;12.23;10.43;;;20.30;75.60;;;20.57;58.78;97963.13;5007924;28;20045;-58
2022/07/22 05:16:51;;;;;;;12.82;9.68;;;20.40;75.50;;;20.57;58.72;97963.97;5007675;28;20372;-60
2022/07/22 05:19:19;;;;;;;11.15;9.68;;;20.30;75.70;;;20.59;58.64;97970.03;5007511;28;20121;-60
2022/07/22 05:21:47;;;;;;;10.02;8.77;;;20.40;75.80;;;20.59;58.69;97967.31;5007677;28;20064;-58
2022/07/22 05:24:15;;;;;;;10.45;9.27;;;20.40;75.50;;;20.60;58.83;97968.13;5009968;28;20356;-58
2022/07/22 05:26:44;;;;;;;11.07;9.98;;;20.40;75.70;;;20.60;59.06;97963.56;5008796;28;20059;-60
2022/07/22 05:29:12;;;;;;;14.00;11.27;;;20.40;75.80;;;20.64;58.95;97970.19;5007299;28;20058;-60
2022/07/22 05:31:40;;;;;;;11.40;9.98;;;20.40;75.70;;;20.69;59.08;97977.66;5009322;28;20049;-60
2022/07/22 05:34:08;;;;;;;11.25;10.05;;;20.50;75.70;;;20.73;59.04;97973.47;5009311;28;20061;-60
2022/07/22 05:36:41;;;;;;;11.85;9.60;;;20.60;74.90;;;20.75;59.06;97974.06;5007227;28;20375;-60
2022/07/22 05:39:11;;;;;;;13.30;9.57;;;20.60;75.10;;;20.77;58.80;97966.56;5007233;28;20056;-60
2022/07/22 05:41:39;;;;;;;11.77;9.75;;;20.70;75.10;;;20.81;58.73;97970.50;5008234;28;20060;-60
2022/07/22 05:44:08;;;;;;;10.52;9.38;;;20.70;74.70;;;20.86;58.55;97972.56;5007514;28;20348;-60
2022/07/22 05:46:36;;;;;;;11.70;9.15;;;20.70;74.70;;;20.88;58.83;97975.03;5007363;28;20066;-60
2022/07/22 05:49:06;;;;;;;11.00;9.90;;;20.80;74.70;;;20.87;58.90;97979.63;4991143;28;20471;-60
2022/07/22 05:51:46;;;;;;;10.10;9.10;;;20.80;74.60;;;20.88;58.78;97977.72;5006145;28;20066;-58
2022/07/22 05:54:14;;;;;;;11.90;9.27;;;20.80;74.70;;;20.90;59.04;97968.38;4996484;28;20106;-58
2022/07/22 05:56:45;;;;;;;12.05;10.18;;;20.80;74.50;;;20.89;59.06;97979.41;5003650;28;20042;-53
2022/07/22 05:59:22;;;;;;;10.88;9.15;;;20.80;74.70;;;20.88;58.84;97975.03;5006040;28;20058;-56
2022/07/22 06:01:56;;;;;;;11.20;8.50;;;20.80;74.50;;;20.94;58.89;97975.00;4995544;28;20077;-53
2022/07/22 06:04:44;;;;;;;11.77;8.80;;;20.90;73.90;;;21.04;58.52;97969.09;5005588;28;20064;-54
2022/07/22 06:07:15;;;;;;;10.52;9.27;;;21.00;73.60;;;21.09;58.45;97965.72;5005127;28;20378;-54
2022/07/22 06:09:45;;;;;;;11.18;8.73;;;21.10;73.30;;;21.15;58.22;97968.38;5004367;28;20068;-53
2022/07/22 06:12:20;;;;;;;10.95;9.57;;;21.10;72.70;;;21.17;57.95;97968.97;5008085;28;20053;-54
2022/07/22 06:14:48;;;;;;;11.52;9.13;;;21.30;72.50;;;21.17;58.04;97971.69;5001229;28;20268;-53
2022/07/22 06:17:16;;;;;;;13.10;10.02;;;21.20;72.30;;;21.19;58.07;97972.28;4986112;28;20054;-52
2022/07/22 06:19:44;;;;;;;11.43;10.23;;;21.20;72.30;;;21.21;57.94;97970.19;4969903;28;20054;-52
2022/07/22 06:22:12;;;;;;;12.02;10.75;;;21.20;72.40;;;21.21;58.21;97975.59;4986558;28;20062;-54
2022/07/22 06:24:53;;;;;;;9.70;8.68;;;21.20;72.30;;;21.28;58.44;97967.41;5019721;28;20066;-52
2022/07/22 06:27:21;;;;;;;11.80;9.68;;;21.40;72.60;;;21.34;57.93;97974.63;4985636;28;20261;-52
2022/07/22 06:29:53;;;;;;;10.90;9.80;;;21.40;72.10;;;21.40;57.87;97970.22;4986828;28;20257;-54
2022/07/22 06:32:23;;;;;;;10.95;9.85;;;21.40;72.10;;;21.39;57.86;97971.28;5018210;28;20055;-51
2022/07/22 06:34:51;;;;;;;13.55;10.93;;;21.50;71.80;;;21.41;58.15;97971.88;5019175;28;20058;-55
2022/07/22 06:37:19;;;;;;;10.98;9.80;;;21.50;71.70;;;21.40;58.20;97972.91;4986589;28;20042;-53
2022/07/22 06:39:56;;;;;;;12.80;10.07;;;21.50;71.80;;;21.46;58.08;97968.53;5019005;28;20054;-48
2022/07/22 06:42:44;;;;;;;10.60;9.50;;;21.50;71.60;;;21.51;58.06;97966.00;4986534;28;20064;-58
2022/07/22 06:45:36;;;;;;;9.95;8.60;;;21.60;71.90;;;21.58;57.86;97972.19;4988709;28;20058;-53
2022/07/22 06:48:11;;;;;;;10.18;9.18;;;21.60;71.90;;;21.61;57.43;97972.53;4984926;28;20076;-53
2022/07/22 06:50:40;;;;;;;9.80;8.32;;;21.60;71.20;;;21.63;57.37;97959.63;4984968;28;20239;-49
2022/07/22 06:53:14;;;;;;;10.68;8.43;;;21.70;70.40;;;21.67;57.35;97964.56;4983450;28;20266;-50
2022/07/22 06:55:42;;;;;;;10.30;7.78;;;21.80;70.00;;;21.72;56.89;97965.56;4982517;28;20046;-50
2022/07/22 06:58:12;;;;;;;10.05;9.05;;;21.80;69.90;;;21.77;56.95;97964.88;4983978;28;20442;-50
2022/07/22 07:00:40;;;;;;;11.90;10.18;;;21.90;69.70;;;21.82;56.85;97962.31;4983117;28;20058;-48
2022/07/22 07:03:34;;;;;;;10.18;9.20;;;21.90;69.70;;;21.88;57.13;97963.31;4990741;28;20068;-52
2022/07/22 07:06:11;;;;;;;9.68;8.60;;;22.00;69.70;;;21.93;57.25;97960.75;4985829;28;20379;-54
2022/07/22 07:08:57;;;;;;;11.57;10.35;;;22.00;69.70;;;21.96;56.85;97961.09;4987473;28;20319;-50
2022/07/22 07:11:26;;;;;;;10.50;8.65;;;22.00;69.50;;;21.95;57.04;97953.22;4987212;28;20053;-50
2022/07/22 07:13:54;;;;;;;13.98;8.93;;;22.00;69.40;;;21.97;57.16;97951.94;4986195;28;20050;-55
2022/07/22 07:16:22;;;;;;;13.70;9.43;;;22.10;69.60;;;22.03;56.55;97951.00;4969931;28;20043;-53
2022/07/22 07:18:50;;;;;;;14.25;9.93;;;22.10;69.20;;;22.09;56.69;97945.75;4986756;28;20370;-52
2022/07/22 07:21:18;;;;;;;10.68;9.20;;;22.30;69.10;;;22.15;56.84;97944.81;4985556;28;20371;-50
2022/07/22 07:23:47;;;;;;;11.60;9.18;;;22.30;68.80;;;22.18;56.36;97934.34;4985612;28;20054;-48
2022/07/22 07:26:15;;;;;;;10.65;9.55;;;22.40;68.30;;;22.23;56.21;97942.63;4985872;28;20050;-49
2022/07/22 07:28:43;;;;;;;11.13;9.02;;;22.40;68.10;;;22.26;56.43;97937.84;4985759;28;20050;-58
2022/07/22 07:31:18;;;;;;;11.20;9.32;;;22.50;68.20;;;22.31;56.60;97938.78;4984539;28;20068;-51
2022/07/22 07:33:51;;;;;;;10.88;9.15;;;22.50;68.10;;;22.38;56.55;97938.72;4985481;28;20061;-48
2022/07/22 07:36:19;;;;;;;11.35;8.82;;;22.60;68.00;;;22.44;56.60;97931.53;4987578;28;20046;-54
2022/07/22 07:38:50;;;;;;;13.63;9.85;;;22.70;68.00;;;22.49;56.15;97931.66;4986161;28;20068;-54
2022/07/22 07:41:18;;;;;;;11.43;10.27;;;22.70;68.10;;;22.51;56.12;97941.25;4986127;28;20064;-52
2022/07/22 07:43:50;;;;;;;10.48;8.68;;;22.70;67.50;;;22.57;55.94;97939.50;4985028;28;20050;-53
2022/07/22 07:46:18;;;;;;;11.43;10.15;;;22.80;67.20;;;22.64;55.83;97931.25;4984891;28;20066;-53
2022/07/22 07:48:48;;;;;;;10.90;9.77;;;22.80;66.80;;;22.66;55.68;97926.41;4985534;28;20058;-54
2022/07/22 07:51:16;;;;;;;11.07;8.90;;;22.80;66.70;;;22.68;55.87;97922.44;4985185;28;20371;-52
2022/07/22 07:53:44;;;;;;;11.38;9.73;;;22.80;66.80;;;22.74;55.38;97932.34;4988666;28;20054;-49
2022/07/22 07:56:13;;;;;;;11.50;9.02;;;22.90;66.50;;;22.79;55.22;97929.75;4988919;28;20357;-51
2022/07/22 07:58:41;;;;;;;12.93;10.30;;;22.90;66.00;;;22.83;54.88;97923.84;4989319;28;20061;-49
2022/07/22 08:01:30;;;;;;;10.73;9.60;;;23.00;65.70;;;22.84;54.99;97923.63;5017743;28;20061;-51
2022/07/22 08:04:17;;;;;;;10.60;8.75;;;23.00;65.70;;;22.89;55.12;97922.91;5014683;28;20062;-52
2022/07/22 08:07:06;;;;;;;11.55;10.45;;;23.00;65.40;;;22.94;54.82;97926.59;5015862;28;20188;-53
2022/07/22 08:09:37;;;;;;;11.13;8.50;;;23.10;65.20;;;22.97;54.44;97918.00;5035469;28;20068;-54
2022/07/22 08:12:14;;;;;;;11.98;7.85;;;23.10;65.00;;;23.04;54.63;97922.50;5012909;28;20062;-54
2022/07/22 08:15:06;;;;;;;13.23;8.82;;;23.20;65.10;;;23.10;54.99;97927.00;5017509;28;20049;-54
2022/07/22 08:17:47;;;;;;;14.05;9.77;;;23.30;65.10;;;23.13;54.42;97921.09;5007545;28;20062;-53
2022/07/22 08:20:15;;;;;;;10.70;9.60;;;23.30;64.50;;;23.18;54.00;97915.78;5008435;28;20054;-51
2022/07/22 08:22:49;;;;;;;11.02;9.93;;;23.30;64.20;;;23.21;54.18;97918.03;5009412;28;20044;-51
2022/07/22 08:25:18;;;;;;;11.98;9.80;;;23.40;64.30;;;23.26;54.32;97909.16;5008919;28;20053;-50
2022/07/22 08:27:46;;;;;;;12.43;9.50;;;23.40;64.30;;;23.31;54.17;97915.53;5008350;28;20297;-49
2022/07/22 08:30:16;;;;;;;11.68;10.57;;;23.50;63.90;;;23.35;54.12;97913.19;5009010;28;20053;-49
2022/07/22 08:32:45;;;;;;;10.50;9.50;;;23.60;63.80;;;23.40;53.55;97907.88;5010318;28;20056;-51
2022/07/22 08:35:12;;;;;;;11.65;10.45;;;23.60;63.40;;;23.41;53.49;97912.22;5008915;28;20061;-52
2022/07/22 08:37:41;;;;;;;11.40;9.60;;;23.60;63.00;;;23.43;53.71;97904.66;5008907;28;20222;-51
2022/07/22 08:40:10;;;;;;;13.27;9.93;;;23.70;63.40;;;23.49;53.29;97902.88;5010425;28;20053;-52
2022/07/22 08:42:41;;;;;;;12.90;9.60;;;23.60;62.70;;;23.51;53.08;97898.03;5008120;28;20049;-49
2022/07/22 08:45:10;;;;;;;10.57;9.50;;;23.70;62.60;;;23.53;52.93;97896.72;4992594;28;20054;-51
2022/07/22 08:47:48;;;;;;;11.30;8.77;;;23.70;62.30;;;23.55;53.04;97899.22;5007845;28;20514;-52
2022/07/22 08:50:25;;;;;;;10.23;9.15;;;23.70;62.20;;;23.58;52.74;97891.41;4993076;28;20061;-49
2022/07/22 08:53:00;;;;;;;10.70;8.93;;;23.70;61.60;;;23.59;52.39;97890.38;4992216;28;20061;-48
2022/07/22 08:55:27;;;;;;;11.43;9.68;;;23.70;61.30;;;23.62;52.40;97880.06;5008254;28;20061;-48
2022/07/22 08:57:56;;;;;;;11.90;9.52;;;23.70;61.10;;;23.64;52.29;97883.38;5007417;28;20061;-48
2022/07/22 09:00:24;;;;;;;10.63;8.95;;;23.80;61.10;;;23.64;52.47;97886.91;5009301;28;20328;-52
2022/07/22 09:02:52;;;;;;;13.43;11.20;;;23.80;61.50;;;23.67;52.57;97883.72;5006397;28;20050;-48
2022/07/22 09:05:19;;;;;;;11.60;9.30;;;23.80;61.60;;;23.76;52.29;97881.44;5007084;28;20065;-50
2022/07/22 09:08:08;;;;;;;10.35;9.20;;;23.90;61.10;;;23.81;52.67;97887.03;5007425;28;20053;-51
2022/07/22 09:10:55;;;;;;;12.68;10.20;;;24.00;61.50;;;23.86;52.42;97881.69;5008695;28;20052;-52
2022/07/22 09:13:44;;;;;;;10.38;8.30;;;24.00;61.10;;;23.89;51.67;97888.53;5012599;28;20053;-51
2022/07/22 09:16:48;;;;;;;9.05;7.43;;;24.10;60.20;;;23.93;50.88;97884.28;5007476;28;20056;-49
2022/07/22 09:19:34;;;;;;;14.52;8.10;;;24.10;58.70;;;23.99;50.93;97886.03;5009522;28;20038;-49
2022/07/22 09:22:43;;;;;;;16.73;9.13;;;24.20;58.70;;;24.05;50.44;97876.91;5011038;28;20057;-51
2022/07/22 09:25:32;;;;;;;9.57;8.55;;;24.20;57.80;;;24.12;51.07;97880.31;5008560;28;20072;-49
2022/07/22 09:28:23;;;;;;;13.82;10.73;;;24.30;58.80;;;24.17;50.51;97880.41;5012366;28;20057;-49
2022/07/22 09:31:30;;;;;;;11.02;9.93;;;24.40;58.30;;;24.16;50.45;97875.22;5002004;28;20557;-52
2022/07/22 09:34:34;;;;;;;11.70;8.52;;;24.40;58.20;;;24.22;50.68;97879.66;5007302;28;20390;-49
2022/07/22 09:37:15;;;;;;;11.23;8.73;;;24.40;58.40;;;24.27;50.51;97874.34;5007824;28;20375;-52
2022/07/22 09:39:44;;;;;;;9.35;8.43;;;24.50;58.50;;;24.32;50.27;97871.69;5006906;28;20046;-49
2022/07/22 09:42:16;;;;;;;12.52;9.00;;;24.50;58.30;;;24.41;50.42;97874.84;5007178;28;20053;-51
2022/07/22 09:44:47;;;;;;;12.95;8.15;;;24.70;58.20;;;24.49;50.20;97868.19;5006429;28;20390;-50
2022/07/22 09:47:30;;;;;;;9.50;8.50;;;24.70;57.80;;;24.56;49.99;97866.97;4986767;28;20364;-49
2022/07/22 09:50:24;;;;;;;13.85;8.95;;;24.80;57.40;;;24.60;49.75;97861.03;4988270;28;20076;-51
2022/07/22 09:53:12;;;;;;;11.45;10.07;;;24.90;57.50;;;24.63;49.48;97857.81;4997210;28;20058;-53
2022/07/22 09:55:46;;;;;;;10.80;8.73;;;24.90;57.20;;;24.65;49.50;97858.41;4987623;28;20060;-51
2022/07/22 09:58:14;;;;;;;11.75;8.48;;;24.90;57.00;;;24.70;49.42;97858.50;4985397;28;20046;-54
2022/07/22 10:00:45;;;;;;;9.10;8.20;;;24.90;56.90;;;24.78;49.25;97858.09;4988442;28;20541;-51
2022/07/22 10:03:38;;;;;;;9.68;7.90;;;25.00;57.00;;;24.84;48.01;97839.94;4988092;28;20058;-51
2022/07/22 10:06:07;;;;;;;12.05;10.82;;;25.10;56.30;;;24.89;48.52;97838.13;4988948;28;20055;-51
2022/07/22 10:08:38;;;;;;;10.40;8.38;;;25.20;55.80;;;24.93;48.66;97832.97;4988679;28;20121;-54
2022/07/22 10:11:07;;;;;;;9.05;7.63;;;25.20;55.80;;;25.01;48.38;97837.16;4986753;28;20066;-49
2022/07/22 10:13:38;;;;;;;9.38;8.48;;;25.20;55.40;;;25.06;47.71;97829.91;4988069;28;20058;-53
2022/07/22 10:16:09;;;;;;;10.00;8.05;;;25.30;55.10;;;25.13;48.16;97827.84;4987034;28;20053;-53
2022/07/22 10:18:39;;;;;;;8.48;7.55;;;25.40;54.90;;;25.21;48.07;97832.03;5003014;28;20365;-51
2022/07/22 10:21:09;;;;;;;9.90;9.00;;;25.50;54.70;;;25.30;48.21;97824.25;5002321;28;20060;-48
2022/07/22 10:24:08;;;;;;;10.07;8.93;;;25.70;54.50;;;25.34;47.45;97818.06;4986996;28;20076;-50
2022/07/22 10:26:52;;;;;;;11.15;9.07;;;25.80;52.90;;;25.43;47.58;97812.19;4987478;28;20050;-49
2022/07/22 10:29:26;;;;;;;8.20;7.35;;;25.80;53.10;;;25.49;47.08;97808.44;4987885;28;20054;-54
2022/07/22 10:32:16;;;;;;;9.10;7.60;;;25.90;52.70;;;25.59;46.92;97805.84;4987258;28;20276;-52